Time;durP1;ratioP1;P1;durP2;ratioP2;P2;SDS_P1;SDS_P2;PMS_P1;PMS_P2;Temp;Humidity;BMP_temperature;BMP_pressure;BME280_temperature;BME280_humidity;BME280_pressure;Samples;Min_cycle;Max_cycle;Signal;HPM_P1;HPM_P2
2021/05/08 00:00:27;;;;;;;;;;;3.20;99.90;;;;;;10448220;28;20008;-65
2021/05/08 00:05:28;;;;;;;;;;;3.20;99.90;;;;;;10448001;28;20007;-65
2021/05/08 00:10:30;;;;;;;;;;;3.20;99.90;;;;;;10447520;28;19925;-65
2021/05/08 00:15:31;;;;;;;;;;;3.10;99.90;;;;;;10442935;28;19928;-65
2021/05/08 00:20:32;;;;;;;;;;;3.10;99.90;;;;;;10448168;28;20023;-65
2021/05/08 00:25:34;;;;;;;;;;;3.00;99.90;;;;;;10439074;28;19971;-65
2021/05/08 00:30:35;;;;;;;;;;;2.90;99.90;;;;;;10447335;28;19978;-65
2021/05/08 00:35:37;;;;;;;;;;;2.80;99.90;;;;;;10444591;28;19931;-65
2021/05/08 00:40:38;;;;;;;;;;;2.70;99.90;;;;;;10447228;28;20442;-65
2021/05/08 00:45:39;;;;;;;;;;;2.60;99.90;;;;;;10445522;28;19970;-65
2021/05/08 00:50:41;;;;;;;;;;;2.50;99.90;;;;;;10445393;28;19978;-65
2021/05/08 00:55:42;;;;;;;;;;;2.30;99.90;;;;;;10445738;28;19976;-65
2021/05/08 01:00:44;;;;;;;;;;;2.10;99.90;;;;;;10444855;28;19968;-65
2021/05/08 01:05:45;;;;;;;;;;;2.20;99.90;;;;;;10444837;28;20337;-65
2021/05/08 01:10:47;;;;;;;;;;;2.20;99.90;;;;;;10445504;28;20390;-65
2021/05/08 01:15:48;;;;;;;;;;;2.20;99.90;;;;;;10444857;28;20016;-65
2021/05/08 01:20:50;;;;;;;;;;;2.10;99.90;;;;;;10445308;28;19924;-65
2021/05/08 01:25:51;;;;;;;;;;;2.10;99.90;;;;;;10444552;28;19991;-65
2021/05/08 01:30:52;;;;;;;;;;;2.00;99.90;;;;;;10445466;28;20364;-65
2021/05/08 01:35:54;;;;;;;;;;;2.00;99.90;;;;;;10443559;28;21035;-65
2021/05/08 01:41:01;;;;;;;;;;;1.70;99.90;;;;;;10437254;28;19947;-65
2021/05/08 01:46:03;;;;;;;;;;;1.40;99.90;;;;;;10444858;28;20281;-65
2021/05/08 01:51:04;;;;;;;;;;;1.50;99.90;;;;;;10445405;28;19933;-65
2021/05/08 01:56:06;;;;;;;;;;;1.60;99.90;;;;;;10435332;28;19968;-65
2021/05/08 02:01:07;;;;;;;;;;;1.60;99.90;;;;;;10445307;28;19925;-65
2021/05/08 02:06:09;;;;;;;;;;;1.60;99.90;;;;;;10453260;28;20508;-65
2021/05/08 02:11:12;;;;;;;;;;;1.70;99.90;;;;;;10458883;28;20313;-65
2021/05/08 02:16:13;;;;;;;;;;;1.70;99.90;;;;;;10436888;28;19979;-64
2021/05/08 02:21:14;;;;;;;;;;;1.70;99.90;;;;;;10458487;28;20454;-65
2021/05/08 02:26:16;;;;;;;;;;;1.60;99.90;;;;;;10458020;28;19964;-65
2021/05/08 02:31:17;;;;;;;;;;;1.60;99.90;;;;;;10457891;28;19925;-65
2021/05/08 02:36:18;;;;;;;;;;;1.50;99.90;;;;;;10445452;28;20015;-65
2021/05/08 02:41:20;;;;;;;;;;;1.40;99.90;;;;;;10456789;28;20019;-65
2021/05/08 02:46:21;;;;;;;;;;;1.30;99.90;;;;;;10458666;28;20683;-65
2021/05/08 02:51:24;;;;;;;;;;;1.30;99.90;;;;;;10457393;28;19925;-65
2021/05/08 02:56:26;;;;;;;;;;;1.20;99.90;;;;;;10473423;28;20019;-65
2021/05/08 03:01:27;;;;;;;;;;;1.00;99.90;;;;;;10446792;28;20047;-65
2021/05/08 03:06:28;;;;;;;;;;;1.00;99.90;;;;;;10451169;28;20340;-65
2021/05/08 03:11:30;;;;;;;;;;;1.10;99.90;;;;;;10450294;28;20451;-65
2021/05/08 03:16:36;;;;;;;;;;;1.10;99.90;;;;;;10464082;28;19925;-65
2021/05/08 03:21:38;;;;;;;;;;;1.10;99.90;;;;;;10449430;28;19928;-65
2021/05/08 03:26:39;;;;;;;;;;;1.00;99.90;;;;;;10450322;28;19925;-65
2021/05/08 03:31:40;;;;;;;;;;;1.00;99.90;;;;;;10449019;28;19971;-65
2021/05/08 03:36:42;;;;;;;;;;;0.90;99.90;;;;;;10449299;28;20019;-65
2021/05/08 03:41:43;;;;;;;;;;;0.90;99.90;;;;;;10442602;28;20123;-65
2021/05/08 03:46:44;;;;;;;;;;;0.90;99.90;;;;;;10441538;28;19959;-65
2021/05/08 03:51:46;;;;;;;;;;;0.90;99.90;;;;;;10447961;28;20360;-65
2021/05/08 03:56:47;;;;;;;;;;;0.90;99.90;;;;;;10448477;28;19932;-65
2021/05/08 04:01:49;;;;;;;;;;;0.90;99.90;;;;;;10447403;28;19960;-65
2021/05/08 04:06:50;;;;;;;;;;;1.00;99.90;;;;;;10448195;28;19925;-65
2021/05/08 04:11:51;;;;;;;;;;;1.00;99.90;;;;;;10447149;28;19990;-65
2021/05/08 04:16:53;;;;;;;;;;;1.00;99.90;;;;;;10447738;28;19925;-65
2021/05/08 04:21:54;;;;;;;;;;;0.80;99.90;;;;;;10447529;28;19971;-65
2021/05/08 04:26:55;;;;;;;;;;;1.00;99.90;;;;;;10447684;28;19925;-65
2021/05/08 04:31:57;;;;;;;;;;;1.20;99.90;;;;;;10446068;28;19983;-65
2021/05/08 04:36:58;;;;;;;;;;;1.40;99.90;;;;;;10447319;28;19928;-65
2021/05/08 04:42:00;;;;;;;;;;;1.40;99.90;;;;;;10446034;28;19992;-65
2021/05/08 04:47:01;;;;;;;;;;;1.90;99.90;;;;;;10446339;28;20030;-65
2021/05/08 04:52:03;;;;;;;;;;;2.40;99.90;;;;;;10445985;28;19998;-65
2021/05/08 04:57:04;;;;;;;;;;;2.40;99.90;;;;;;10445717;28;20621;-65
2021/05/08 05:02:05;;;;;;;;;;;2.60;99.90;;;;;;10445299;28;19928;-65
2021/05/08 05:07:07;;;;;;;;;;;4.20;99.90;;;;;;10443966;28;19931;-65
2021/05/08 05:12:08;;;;;;;;;;;5.90;99.90;;;;;;10445514;28;19929;-66
2021/05/08 05:17:10;;;;;;;;;;;7.40;99.90;;;;;;10444893;28;20011;-66
2021/05/08 05:22:11;;;;;;;;;;;6.30;99.90;;;;;;10445614;28;19931;-66
2021/05/08 05:27:12;;;;;;;;;;;5.50;99.90;;;;;;10444376;28;20381;-66
2021/05/08 05:32:14;;;;;;;;;;;4.90;99.90;;;;;;10445787;28;20317;-66
2021/05/08 05:37:16;;;;;;;;;;;4.30;99.90;;;;;;10444591;28;19933;-66
2021/05/08 05:42:17;;;;;;;;;;;4.10;99.90;;;;;;10448864;28;19967;-66
2021/05/08 05:47:22;;;;;;;;;;;3.90;99.90;;;;;;10453370;28;20003;-65
2021/05/08 05:52:25;;;;;;;;;;;3.80;99.90;;;;;;10429392;28;19933;-66
2021/05/08 05:57:27;;;;;;;;;;;3.80;99.90;;;;;;10435960;28;19932;-66
2021/05/08 06:02:29;;;;;;;;;;;3.80;99.90;;;;;;10451553;28;19929;-66
2021/05/08 06:07:31;;;;;;;;;;;3.80;99.90;;;;;;10445245;28;19995;-65
2021/05/08 06:12:32;;;;;;;;;;;4.00;99.90;;;;;;10458650;28;20425;-66
2021/05/08 06:17:34;;;;;;;;;;;4.20;99.90;;;;;;10455694;28;20011;-66
2021/05/08 06:22:35;;;;;;;;;;;4.40;99.90;;;;;;10449751;28;20331;-66
2021/05/08 06:27:37;;;;;;;;;;;4.60;99.90;;;;;;10448979;28;19936;-66
2021/05/08 06:32:38;;;;;;;;;;;4.70;99.90;;;;;;10448223;28;19990;-66
2021/05/08 06:37:40;;;;;;;;;;;4.90;99.90;;;;;;10418069;28;19926;-66
2021/05/08 06:42:41;;;;;;;;;;;5.10;99.90;;;;;;10431366;28;20067;-66
2021/05/08 06:47:42;;;;;;;;;;;5.20;99.90;;;;;;10419056;28;19929;-65
2021/05/08 06:52:44;;;;;;;;;;;5.30;99.90;;;;;;10424527;28;21610;-66
2021/05/08 06:57:47;;;;;;;;;;;5.40;99.90;;;;;;10430704;28;20401;-66
2021/05/08 07:02:48;;;;;;;;;;;5.50;99.90;;;;;;10434068;28;19999;-66
2021/05/08 07:08:03;;;;;;;;;;;5.50;99.90;;;;;;10426985;28;19925;-66
2021/05/08 07:13:04;;;;;;;;;;;5.90;99.90;;;;;;10430360;28;19960;-66
2021/05/08 07:18:23;;;;;;;;;;;6.40;99.90;;;;;;10433580;28;19925;-66
2021/05/08 07:23:25;;;;;;;;;;;6.70;99.90;;;;;;10434024;28;19925;-66
2021/05/08 07:28:26;;;;;;;;;;;7.30;99.90;;;;;;10430240;28;19929;-66
2021/05/08 07:33:28;;;;;;;;;;;7.80;99.90;;;;;;10427317;28;20618;-66
2021/05/08 07:38:29;;;;;;;;;;;8.70;99.90;;;;;;10412531;28;19962;-66
2021/05/08 07:43:31;;;;;;;;;;;9.40;99.90;;;;;;10430888;28;19982;-66
2021/05/08 07:48:32;;;;;;;;;;;10.80;98.60;;;;;;10433439;28;19925;-67
2021/05/08 07:53:34;;;;;;;;;;;11.10;95.50;;;;;;10431784;28;19925;-67
2021/05/08 07:58:35;;;;;;;;;;;11.00;93.80;;;;;;10430526;28;19925;-67
2021/05/08 08:03:36;;;;;;;;;;;10.90;91.90;;;;;;10435985;28;20023;-66
2021/05/08 08:08:38;;;;;;;;;;;11.00;90.70;;;;;;10439055;28;20452;-67
2021/05/08 08:13:41;;;;;;;;;;;10.90;90.80;;;;;;10431428;28;19925;-66
2021/05/08 08:18:43;;;;;;;;;;;11.00;88.70;;;;;;10444963;28;19925;-66
2021/05/08 08:23:44;;;;;;;;;;;11.00;87.50;;;;;;10446797;28;20431;-66
2021/05/08 08:28:46;;;;;;;;;;;11.50;85.80;;;;;;10445594;28;20008;-67
2021/05/08 08:33:47;;;;;;;;;;;11.70;82.90;;;;;;10426628;28;19983;-66
2021/05/08 08:38:48;;;;;;;;;;;12.10;78.20;;;;;;10446932;28;19994;-61
2021/05/08 08:43:50;;;;;;;;;;;12.00;73.90;;;;;;10446703;28;19963;-61
2021/05/08 08:48:51;;;;;;;;;;;12.20;74.30;;;;;;10443798;28;20014;-61
2021/05/08 08:53:55;;;;;;;;;;;12.40;74.10;;;;;;10443395;28;20023;-61
2021/05/08 08:59:02;;;;;;;;;;;12.50;71.80;;;;;;10437084;28;19963;-62
2021/05/08 09:04:05;;;;;;;;;;;12.40;72.50;;;;;;10415324;28;20485;-61
2021/05/08 09:09:08;;;;;;;;;;;12.90;71.80;;;;;;10428453;28;20297;-61
2021/05/08 09:14:16;;;;;;;;;;;13.90;68.90;;;;;;10446330;28;20028;-62
2021/05/08 09:19:18;;;;;;;;;;;14.30;68.70;;;;;;10440734;28;19929;-62
2021/05/08 09:24:20;;;;;;;;;;;14.50;66.40;;;;;;10444094;28;19972;-62
2021/05/08 09:29:24;;;;;;;;;;;15.20;62.00;;;;;;10443548;28;19975;-62
2021/05/08 09:34:25;;;;;;;;;;;15.50;60.20;;;;;;10442589;28;20019;-62
2021/05/08 09:39:30;;;;;;;;;;;15.40;60.20;;;;;;10445744;28;19990;-62
2021/05/08 09:44:32;;;;;;;;;;;15.70;54.50;;;;;;10444951;28;20015;-61
2021/05/08 09:49:33;;;;;;;;;;;14.80;55.50;;;;;;10444911;28;20027;-62
2021/05/08 09:54:34;;;;;;;;;;;15.30;56.10;;;;;;10445218;28;20008;-62
2021/05/08 09:59:36;;;;;;;;;;;15.50;50.50;;;;;;10444501;28;19928;-62
2021/05/08 10:04:42;;;;;;;;;;;16.10;48.10;;;;;;10444868;28;20370;-62
2021/05/08 10:09:44;;;;;;;;;;;17.00;47.80;;;;;;10444853;28;20416;-62
2021/05/08 10:14:47;;;;;;;;;;;16.80;45.10;;;;;;10443204;28;19956;-61
2021/05/08 10:19:51;;;;;;;;;;;16.80;43.00;;;;;;10443445;28;19924;-62
2021/05/08 10:24:53;;;;;;;;;;;16.70;44.00;;;;;;10443601;28;19924;-62
2021/05/08 10:29:54;;;;;;;;;;;16.40;42.70;;;;;;10448507;28;20292;-62
2021/05/08 10:34:59;;;;;;;;;;;16.70;43.70;;;;;;10451542;28;20387;-62
2021/05/08 10:40:07;;;;;;;;;;;16.90;43.00;;;;;;10467025;28;20043;-62
2021/05/08 10:45:12;;;;;;;;;;;17.20;41.60;;;;;;10451708;28;20443;-62
2021/05/08 10:50:23;;;;;;;;;;;17.00;43.60;;;;;;10431949;28;19931;-62
2021/05/08 10:55:25;;;;;;;;;;;16.50;42.80;;;;;;10449231;28;20381;-63
2021/05/08 11:00:26;;;;;;;;;;;16.80;44.30;;;;;;10451434;28;19929;-62
2021/05/08 11:05:31;;;;;;;;;;;17.10;42.60;;;;;;10451385;28;19924;-62
2021/05/08 11:10:33;;;;;;;;;;;17.10;43.90;;;;;;10450995;28;19964;-62
2021/05/08 11:15:56;;;;;;;;;;;17.00;43.70;;;;;;10450763;28;19941;-62
2021/05/08 11:21:19;;;;;;;;;;;17.30;43.30;;;;;;10450798;28;19985;-62
2021/05/08 11:26:20;;;;;;;;;;;17.50;43.00;;;;;;10450511;28;19970;-62
2021/05/08 11:31:25;;;;;;;;;;;17.50;42.40;;;;;;10450881;28;19943;-62
2021/05/08 11:36:26;;;;;;;;;;;17.30;42.80;;;;;;10450153;28;19929;-62
2021/05/08 11:41:28;;;;;;;;;;;18.00;41.50;;;;;;10449541;28;19972;-62
2021/05/08 11:46:30;;;;;;;;;;;18.10;40.50;;;;;;10449276;28;20008;-62
2021/05/08 11:51:32;;;;;;;;;;;17.50;41.00;;;;;;10449220;28;20381;-62
2021/05/08 11:56:33;;;;;;;;;;;17.50;41.50;;;;;;10449133;28;20044;-62
2021/05/08 12:01:35;;;;;;;;;;;17.50;41.50;;;;;;10448985;28;20071;-62
2021/05/08 12:06:38;;;;;;;;;;;17.60;41.30;;;;;;10448927;28;20366;-62
2021/05/08 12:11:40;;;;;;;;;;;18.10;42.60;;;;;;10448540;28;19974;-62
2021/05/08 12:16:41;;;;;;;;;;;18.20;41.60;;;;;;10446635;28;19976;-62
2021/05/08 12:21:43;;;;;;;;;;;18.10;41.10;;;;;;10448277;28;19925;-62
2021/05/08 12:26:48;;;;;;;;;;;18.00;41.80;;;;;;10446403;28;20011;-62
2021/05/08 12:31:49;;;;;;;;;;;18.10;41.80;;;;;;10447500;28;19975;-62
2021/05/08 12:36:58;;;;;;;;;;;18.40;41.00;;;;;;10446793;28;20028;-62
2021/05/08 12:42:02;;;;;;;;;;;19.10;40.10;;;;;;10447794;28;20138;-62
2021/05/08 12:47:17;;;;;;;;;;;18.80;40.40;;;;;;10446413;28;19936;-62
2021/05/08 12:52:26;;;;;;;;;;;18.00;42.20;;;;;;10446325;28;20459;-62
2021/05/08 12:57:28;;;;;;;;;;;17.70;42.70;;;;;;10447073;28;20335;-62
2021/05/08 13:02:31;;;;;;;;;;;18.00;43.50;;;;;;10445118;28;19978;-62
2021/05/08 13:07:33;;;;;;;;;;;18.10;42.60;;;;;;10446481;28;19925;-62
2021/05/08 13:12:35;;;;;;;;;;;18.20;42.40;;;;;;10444756;28;20292;-62
2021/05/08 13:17:37;;;;;;;;;;;18.40;42.10;;;;;;10444880;28;19983;-61
2021/05/08 13:22:39;;;;;;;;;;;18.40;42.20;;;;;;10445907;28;19924;-62
2021/05/08 13:27:42;;;;;;;;;;;18.10;42.30;;;;;;10446441;28;19979;-62
2021/05/08 13:32:45;;;;;;;;;;;18.00;42.50;;;;;;10444114;28;19964;-62
2021/05/08 13:37:47;;;;;;;;;;;18.10;43.20;;;;;;10444777;28;19925;-62
2021/05/08 13:42:49;;;;;;;;;;;18.70;43.50;;;;;;10444715;28;19960;-62
2021/05/08 13:47:50;;;;;;;;;;;18.70;42.70;;;;;;10444327;28;20401;-62
2021/05/08 13:52:51;;;;;;;;;;;18.50;43.00;;;;;;10445143;28;19925;-62
2021/05/08 13:57:53;;;;;;;;;;;18.40;42.80;;;;;;10444105;28;19925;-61
2021/05/08 14:02:54;;;;;;;;;;;18.10;43.20;;;;;;10447983;28;19929;-61
2021/05/08 14:07:55;;;;;;;;;;;17.80;43.90;;;;;;10453171;28;20536;-62
2021/05/08 14:12:57;;;;;;;;;;;17.90;43.70;;;;;;10451760;28;20646;-62
2021/05/08 14:17:58;;;;;;;;;;;18.20;43.90;;;;;;10450303;28;20474;-61
2021/05/08 14:22:59;;;;;;;;;;;18.50;42.80;;;;;;10452052;28;19925;-62
2021/05/08 14:28:00;;;;;;;;;;;18.40;42.60;;;;;;10452198;28;19964;-62
2021/05/08 14:33:02;;;;;;;;;;;18.00;43.70;;;;;;10450980;28;19939;-61
2021/05/08 14:38:05;;;;;;;;;;;17.60;44.50;;;;;;10451374;28;20438;-61
2021/05/08 14:43:06;;;;;;;;;;;17.10;44.60;;;;;;10451387;28;19947;-61
2021/05/08 14:48:07;;;;;;;;;;;17.00;45.60;;;;;;10451532;28;20003;-61
2021/05/08 14:53:09;;;;;;;;;;;16.80;46.00;;;;;;10450823;28;19925;-61
2021/05/08 14:58:10;;;;;;;;;;;16.80;46.30;;;;;;10450530;28;20011;-61
2021/05/08 15:03:12;;;;;;;;;;;17.20;45.30;;;;;;10450088;28;20376;-61
2021/05/08 15:08:13;;;;;;;;;;;17.40;44.70;;;;;;10450385;28;19928;-61
2021/05/08 15:13:15;;;;;;;;;;;17.40;44.90;;;;;;10449756;28;20373;-61
2021/05/08 15:18:19;;;;;;;;;;;17.10;45.50;;;;;;10450227;28;20024;-61
2021/05/08 15:23:20;;;;;;;;;;;16.80;46.10;;;;;;10449367;28;19968;-61
2021/05/08 15:28:22;;;;;;;;;;;16.70;46.50;;;;;;10449350;28;19933;-61
2021/05/08 15:33:23;;;;;;;;;;;16.80;46.40;;;;;;10448955;28;20335;-61
2021/05/08 15:38:28;;;;;;;;;;;16.90;46.20;;;;;;10449387;28;19924;-61
2021/05/08 15:43:30;;;;;;;;;;;17.10;46.80;;;;;;10449078;28;19925;-61
2021/05/08 15:48:31;;;;;;;;;;;17.00;46.60;;;;;;10449527;28;19964;-61
2021/05/08 15:53:32;;;;;;;;;;;17.10;46.40;;;;;;10448924;28;19925;-61
2021/05/08 15:58:34;;;;;;;;;;;17.20;46.90;;;;;;10435467;28;19964;-62
2021/05/08 16:03:35;;;;;;;;;;;17.10;46.60;;;;;;10433538;28;19961;-61
2021/05/08 16:08:37;;;;;;;;;;;17.10;46.90;;;;;;10437253;28;19932;-62
2021/05/08 16:13:38;;;;;;;;;;;17.10;47.10;;;;;;10420570;28;20020;-61
2021/05/08 16:18:40;;;;;;;;;;;17.20;47.10;;;;;;10426797;28;19936;-62
2021/05/08 16:23:41;;;;;;;;;;;17.50;48.00;;;;;;10428020;28;19979;-62
2021/05/08 16:28:42;;;;;;;;;;;17.50;46.80;;;;;;10418934;28;20020;-62
2021/05/08 16:33:44;;;;;;;;;;;17.40;47.30;;;;;;10407228;28;19935;-61
2021/05/08 16:38:45;;;;;;;;;;;17.40;47.50;;;;;;10417085;28;19931;-61
2021/05/08 16:43:47;;;;;;;;;;;17.30;47.90;;;;;;10431588;28;19960;-61
2021/05/08 16:48:50;;;;;;;;;;;17.40;47.60;;;;;;10425839;28;20012;-62
2021/05/08 16:53:51;;;;;;;;;;;17.40;47.80;;;;;;10417251;28;19940;-61
2021/05/08 16:58:53;;;;;;;;;;;17.40;47.50;;;;;;10431743;28;19960;-61
2021/05/08 17:03:54;;;;;;;;;;;17.40;48.10;;;;;;10423109;28;19972;-61
2021/05/08 17:08:55;;;;;;;;;;;17.10;48.40;;;;;;10437830;28;19989;-61
2021/05/08 17:13:57;;;;;;;;;;;16.90;48.10;;;;;;10437043;28;19928;-62
2021/05/08 17:18:58;;;;;;;;;;;16.80;49.20;;;;;;10416630;28;20007;-62
2021/05/08 17:23:59;;;;;;;;;;;16.60;49.30;;;;;;10434781;28;20019;-61
2021/05/08 17:29:01;;;;;;;;;;;16.70;49.50;;;;;;10442659;28;20027;-61
2021/05/08 17:34:02;;;;;;;;;;;16.70;50.40;;;;;;10440766;28;19963;-61
2021/05/08 17:39:04;;;;;;;;;;;16.80;50.30;;;;;;10410793;28;20015;-61
2021/05/08 17:44:05;;;;;;;;;;;16.70;51.00;;;;;;10402546;28;20004;-61
2021/05/08 17:49:07;;;;;;;;;;;16.60;51.00;;;;;;10370337;28;1360878;-62
2021/05/08 17:54:08;;;;;;;;;;;16.30;51.30;;;;;;10441756;28;20385;-61
2021/05/08 17:59:09;;;;;;;;;;;16.30;51.50;;;;;;10405512;28;19925;-61
2021/05/08 18:04:11;;;;;;;;;;;16.10;51.30;;;;;;10419193;28;19924;-61
2021/05/08 18:09:12;;;;;;;;;;;15.80;51.80;;;;;;10442647;28;19976;-61
2021/05/08 18:14:14;;;;;;;;;;;15.70;52.90;;;;;;10434563;28;19973;-61
2021/05/08 18:19:15;;;;;;;;;;;15.50;52.50;;;;;;10408392;28;19978;-61
2021/05/08 18:24:20;;;;;;;;;;;15.40;52.30;;;;;;10411110;28;19940;-61
2021/05/08 18:29:21;;;;;;;;;;;15.40;52.70;;;;;;10435745;28;19980;-61
2021/05/08 18:34:23;;;;;;;;;;;15.30;53.90;;;;;;10409173;28;19924;-61
2021/05/08 18:39:24;;;;;;;;;;;15.20;53.50;;;;;;10434063;28;19967;-61
2021/05/08 18:44:26;;;;;;;;;;;15.10;54.20;;;;;;10443127;28;20478;-61
2021/05/08 18:49:27;;;;;;;;;;;14.90;54.60;;;;;;10447311;28;20028;-66
2021/05/08 18:54:28;;;;;;;;;;;14.60;54.70;;;;;;10450434;28;20018;-67
2021/05/08 18:59:30;;;;;;;;;;;14.30;55.90;;;;;;10448136;28;19960;-67
2021/05/08 19:04:31;;;;;;;;;;;14.00;56.80;;;;;;10433856;28;19971;-67
2021/05/08 19:09:32;;;;;;;;;;;13.80;56.30;;;;;;10411183;28;19947;-67
2021/05/08 19:14:34;;;;;;;;;;;13.60;57.90;;;;;;10448663;28;20024;-76
2021/05/08 19:19:35;;;;;;;;;;;13.60;56.90;;;;;;10449961;28;19967;-69
2021/05/08 19:24:36;;;;;;;;;;;13.60;58.80;;;;;;10449897;28;20118;-69
2021/05/08 19:29:38;;;;;;;;;;;13.50;58.70;;;;;;10450293;28;20013;-69
2021/05/08 19:34:40;;;;;;;;;;;13.50;60.50;;;;;;10449918;28;19968;-69
2021/05/08 19:39:41;;;;;;;;;;;13.40;61.80;;;;;;10436181;28;20012;-70
2021/05/08 19:44:43;;;;;;;;;;;13.30;62.00;;;;;;10425647;28;20386;-69
2021/05/08 19:49:45;;;;;;;;;;;13.20;65.00;;;;;;10425292;28;19925;-69
2021/05/08 19:54:48;;;;;;;;;;;13.00;67.00;;;;;;10443035;28;20020;-69
2021/05/08 19:59:50;;;;;;;;;;;12.70;68.30;;;;;;10407283;28;20013;-70
2021/05/08 20:04:51;;;;;;;;;;;12.50;70.70;;;;;;10433830;28;19968;-70
2021/05/08 20:09:52;;;;;;;;;;;12.60;74.70;;;;;;10436169;28;20743;-69
2021/05/08 20:14:54;;;;;;;;;;;12.60;75.80;;;;;;10430741;28;19947;-69
2021/05/08 20:19:55;;;;;;;;;;;12.50;79.50;;;;;;10422262;28;20019;-69
2021/05/08 20:24:57;;;;;;;;;;;12.30;82.70;;;;;;10447025;28;19959;-68
2021/05/08 20:29:58;;;;;;;;;;;12.20;85.10;;;;;;10424770;28;19959;-68
2021/05/08 20:35:00;;;;;;;;;;;12.30;89.00;;;;;;10446776;28;19931;-69
2021/05/08 20:40:01;;;;;;;;;;;12.30;91.30;;;;;;10446652;28;19968;-69
2021/05/08 20:45:04;;;;;;;;;;;12.30;93.00;;;;;;10447081;28;19997;-69
2021/05/08 20:50:05;;;;;;;;;;;12.30;96.50;;;;;;10446568;28;20036;-69
2021/05/08 20:55:08;;;;;;;;;;;12.30;97.20;;;;;;10446227;28;20693;-69
2021/05/08 21:00:09;;;;;;;;;;;12.40;95.40;;;;;;10446436;28;20436;-69
2021/05/08 21:05:11;;;;;;;;;;;12.40;95.90;;;;;;10444976;28;20043;-69
2021/05/08 21:10:14;;;;;;;;;;;12.40;95.40;;;;;;10419758;28;19929;-69
2021/05/08 21:15:16;;;;;;;;;;;12.40;96.40;;;;;;10442886;28;20013;-69
2021/05/08 21:20:17;;;;;;;;;;;12.30;98.10;;;;;;10445859;28;20008;-69
2021/05/08 21:25:18;;;;;;;;;;;12.30;96.60;;;;;;10445432;28;19925;-69
2021/05/08 21:30:20;;;;;;;;;;;12.20;99.20;;;;;;10445174;28;20349;-69
2021/05/08 21:35:25;;;;;;;;;;;12.20;99.20;;;;;;10444935;28;20327;-69
2021/05/08 21:40:26;;;;;;;;;;;12.10;99.90;;;;;;10445281;28;20039;-69
2021/05/08 21:45:28;;;;;;;;;;;12.10;99.90;;;;;;10444362;28;19970;-69
2021/05/08 21:50:29;;;;;;;;;;;12.10;99.90;;;;;;10445492;28;20007;-69
2021/05/08 21:55:31;;;;;;;;;;;12.00;99.90;;;;;;10445118;28;20021;-69
2021/05/08 22:00:38;;;;;;;;;;;11.90;99.90;;;;;;10445710;28;19983;-69
2021/05/08 22:05:40;;;;;;;;;;;11.80;99.90;;;;;;10444917;28;19928;-70
2021/05/08 22:10:41;;;;;;;;;;;11.50;99.90;;;;;;10444884;28;20603;-69
2021/05/08 22:15:47;;;;;;;;;;;11.20;99.90;;;;;;10443804;28;20024;-69
2021/05/08 22:20:48;;;;;;;;;;;11.10;99.90;;;;;;10445407;28;20377;-69
2021/05/08 22:25:50;;;;;;;;;;;11.10;99.90;;;;;;10451565;28;19971;-69
2021/05/08 22:30:51;;;;;;;;;;;11.30;99.90;;;;;;10452535;28;19968;-69
2021/05/08 22:35:53;;;;;;;;;;;11.30;99.90;;;;;;10452041;28;19925;-69
2021/05/08 22:40:55;;;;;;;;;;;11.30;99.90;;;;;;10452600;28;19924;-69
2021/05/08 22:45:56;;;;;;;;;;;11.10;99.90;;;;;;10451738;28;20419;-69
2021/05/08 22:50:58;;;;;;;;;;;10.90;99.90;;;;;;10452044;28;20434;-69
2021/05/08 22:55:59;;;;;;;;;;;10.90;99.90;;;;;;10451520;28;20041;-69
2021/05/08 23:01:00;;;;;;;;;;;11.00;99.90;;;;;;10451722;28;19976;-69
2021/05/08 23:06:01;;;;;;;;;;;11.00;99.90;;;;;;10451482;28;20008;-69
2021/05/08 23:11:03;;;;;;;;;;;11.00;99.90;;;;;;10451695;28;19982;-69
2021/05/08 23:16:04;;;;;;;;;;;11.10;99.90;;;;;;10450663;28;20011;-69
2021/05/08 23:21:05;;;;;;;;;;;11.00;99.90;;;;;;10451432;28;19924;-69
2021/05/08 23:26:07;;;;;;;;;;;11.00;99.90;;;;;;10449940;28;19931;-69
2021/05/08 23:31:09;;;;;;;;;;;11.00;99.90;;;;;;10450513;28;19983;-69
2021/05/08 23:36:10;;;;;;;;;;;10.80;99.90;;;;;;10449695;28;19925;-69
2021/05/08 23:41:12;;;;;;;;;;;10.50;99.90;;;;;;10450201;28;19935;-69
2021/05/08 23:46:13;;;;;;;;;;;10.20;99.90;;;;;;10428722;28;19935;-69
2021/05/08 23:51:14;;;;;;;;;;;10.00;99.90;;;;;;10448795;28;20389;-69
2021/05/08 23:56:16;;;;;;;;;;;9.90;99.90;;;;;;10448965;28;19960;-69
